Observations for CAMBRIDGE, United Kingdom (EGSC)

EGSC 221420Z 35008KT 310V020 9999 FEW036 12/03 Q1037
EGSC 221350Z 35008KT 310V030 9999 FEW036 13/03 Q1037
EGSC 221320Z 34009KT 310V010 9999 FEW036 12/02 Q1037
EGSC 221250Z 01008KT 330V040 9999 FEW032 12/03 Q1037
EGSC 221150Z 36010KT 320V030 9999 FEW028 12/04 Q1037
EGSC 221120Z 35010KT 9999 FEW028 12/04 Q1037
EGSC 221050Z 35011KT CAVOK 11/03 Q1037  
EGSC 221020Z 35010KT CAVOK 11/03 Q1037  
EGSC 220950Z 36009KT CAVOK 10/04 Q1037  
EGSC 220920Z 36008KT 300V040 CAVOK 09/04 Q1037  
EGSC 220850Z 36006KT 330V030 CAVOK 08/03 Q1037  
EGSC 220750Z 36006KT CAVOK 07/03 Q1037  
EGSC 220720Z 35005KT CAVOK 06/02 Q1036  
EGSC 220650Z 34006KT CAVOK 06/02 Q1036  
EGSC 211650Z 28004KT 9999 SCT030 SCT038 17/11 Q1026 
EGSC 211620Z 26006KT 9999 FEW040 17/11 Q1026
EGSC 211550Z 26007KT CAVOK 18/11 Q1026  
EGSC 211520Z 27008KT CAVOK 18/11 Q1026  
EGSC 211450Z 26008KT CAVOK 18/10 Q1025  
EGSC 211420Z 25009KT CAVOK 18/10 Q1025